KBUY

Burlington-Alamance Regional Airport

Burlington, North Carolina, USA
METAR KBUY 190454Z AUTO 00000KT 7SM FEW049 05/04 A3019 RMK AO2 SLP226 T00500039 401501006 $
Observed Flight Rules
Nov-19 @ 04:54 UTC (19 minutes ago) Visual Flight Rules
Visibility Clouds
7 miles
  • Few at 4,900' AGL
Temperatures Readings
Current 5°C / 41°F
Dewpoint 4°C / 39°F
Humidity 93%
Altimeter 30.19" Hg
Pressure 1022.6 hPa
Elevation 180
METAR KBUY 190454Z AUTO 00000KT 7SM FEW049 05/04 A3019 RMK AO2 SLP226 T00500039 401501006 $
Observed Flight Rules
Nov-19 @ 04:54 UTC
(19 minutes ago)
VFR
Clouds
  • Few at 4,900' AGL
Temperature Dewpoint
5°C / 41°F 4°C / 39°F
Humidity Altimeter Pressure
93% 30.19" Hg 1022.6 hPa